createdAt,value
2022-10-03T00:02:09.895Z,13.10
2022-10-03T00:04:53.553Z,13.10
2022-10-03T00:07:37.362Z,13.10
2022-10-03T00:10:18.900Z,13.10
2022-10-03T00:13:05.463Z,13.10
2022-10-03T00:15:40.678Z,13.10
2022-10-03T00:18:22.735Z,13.10
2022-10-03T00:21:07.624Z,13.00
2022-10-03T00:23:46.303Z,13.10
2022-10-03T00:26:30.324Z,13.00
2022-10-03T00:29:28.681Z,13.00
2022-10-03T00:32:03.861Z,13.10
2022-10-03T00:34:46.620Z,13.00
2022-10-03T00:37:25.769Z,13.10
2022-10-03T00:40:22.225Z,13.10
2022-10-03T00:43:15.875Z,13.10
2022-10-03T00:45:59.206Z,13.10
2022-10-03T00:49:01.245Z,13.10
2022-10-03T00:51:46.494Z,13.10
2022-10-03T00:54:47.009Z,13.10
2022-10-03T00:57:30.856Z,13.10
2022-10-03T01:00:16.944Z,13.10
2022-10-03T01:02:54.113Z,13.10
2022-10-03T01:05:36.241Z,13.10
2022-10-03T01:08:38.363Z,13.10
2022-10-03T01:11:19.998Z,13.10
2022-10-03T01:13:57.475Z,13.10
2022-10-03T01:16:37.861Z,13.10
2022-10-03T01:19:19.835Z,13.10
2022-10-03T01:22:01.444Z,13.00
2022-10-03T01:24:53.058Z,13.10
2022-10-03T01:27:32.730Z,13.00
2022-10-03T01:30:22.980Z,13.00
2022-10-03T01:32:57.178Z,13.00
2022-10-03T01:35:32.622Z,13.00
2022-10-03T01:38:10.299Z,13.00
2022-10-03T01:40:43.683Z,13.00
2022-10-03T01:43:21.090Z,13.00
2022-10-03T01:46:06.899Z,13.00
2022-10-03T01:48:44.240Z,13.00
2022-10-03T01:51:17.389Z,12.90
2022-10-03T01:54:01.669Z,12.90
2022-10-03T01:56:36.709Z,13.00
2022-10-03T01:59:09.762Z,13.00
2022-10-03T02:01:48.824Z,13.00
2022-10-03T02:04:23.984Z,13.00
2022-10-03T02:07:00.631Z,12.90
2022-10-03T02:09:36.458Z,13.00
2022-10-03T02:12:14.879Z,12.90
2022-10-03T02:14:52.715Z,12.90
2022-10-03T02:17:30.560Z,13.00
2022-10-03T02:20:06.867Z,12.90
2022-10-03T02:22:39.554Z,12.90
2022-10-03T02:25:24.547Z,13.00
2022-10-03T02:28:37.315Z,13.00
2022-10-03T02:31:46.376Z,13.00
2022-10-03T02:34:26.604Z,13.00
2022-10-03T02:37:23.595Z,13.00
2022-10-03T02:40:11.579Z,13.00
2022-10-03T02:43:19.322Z,13.00
2022-10-03T02:46:11.576Z,13.00
2022-10-03T02:49:19.351Z,13.00
2022-10-03T02:52:18.406Z,13.00
2022-10-03T02:55:05.687Z,13.00
2022-10-03T02:58:05.510Z,13.00
2022-10-03T03:00:43.409Z,13.00
2022-10-03T03:03:44.777Z,13.00
2022-10-03T03:07:00.760Z,13.00
2022-10-03T03:10:00.969Z,13.00
2022-10-03T03:12:56.620Z,13.00
2022-10-03T03:16:12.864Z,13.00
2022-10-03T03:18:45.166Z,13.00
2022-10-03T03:21:28.729Z,13.00
2022-10-03T03:24:17.378Z,13.00
2022-10-03T03:27:01.428Z,13.00
2022-10-03T03:29:43.168Z,13.00
2022-10-03T03:32:27.102Z,13.00
2022-10-03T03:35:03.421Z,13.00
2022-10-03T03:37:35.774Z,12.90
2022-10-03T03:40:18.956Z,13.00
2022-10-03T03:43:09.733Z,12.90
2022-10-03T03:45:50.570Z,12.90
2022-10-03T03:48:34.884Z,13.00
2022-10-03T03:51:16.825Z,12.90
2022-10-03T03:54:19.590Z,12.90
2022-10-03T03:57:16.171Z,12.90
2022-10-03T04:00:01.209Z,12.90
2022-10-03T04:02:56.198Z,12.90
2022-10-03T04:05:45.818Z,12.90
2022-10-03T04:08:34.438Z,12.90
2022-10-03T04:11:17.959Z,12.90
2022-10-03T04:14:04.106Z,12.90
2022-10-03T04:17:04.038Z,12.90
2022-10-03T04:19:43.199Z,12.90
2022-10-03T04:22:28.127Z,12.90
2022-10-03T04:25:26.269Z,12.90
2022-10-03T04:28:16.947Z,12.90
2022-10-03T04:30:54.325Z,12.80
2022-10-03T04:33:40.035Z,12.80
2022-10-03T04:36:45.903Z,12.80
2022-10-03T04:39:23.435Z,12.80
2022-10-03T04:41:57.410Z,12.80
2022-10-03T04:44:40.313Z,12.80
2022-10-03T04:47:15.510Z,12.80
2022-10-03T04:49:51.993Z,12.80
2022-10-03T04:52:26.182Z,12.80
2022-10-03T04:55:06.575Z,12.80
2022-10-03T04:57:43.151Z,12.80
2022-10-03T05:00:24.460Z,12.80
2022-10-03T05:02:58.859Z,12.80
2022-10-03T05:05:42.592Z,12.80
2022-10-03T05:08:23.172Z,12.70
2022-10-03T05:11:06.651Z,12.70
2022-10-03T05:13:45.350Z,12.70
2022-10-03T05:16:24.174Z,12.70
2022-10-03T05:18:57.759Z,12.80
2022-10-03T05:21:36.022Z,12.80
2022-10-03T05:24:17.931Z,12.80
2022-10-03T05:26:54.923Z,12.80
2022-10-03T05:29:32.274Z,12.80
2022-10-03T05:32:23.373Z,12.90
2022-10-03T05:35:14.775Z,12.90
2022-10-03T05:38:10.105Z,12.80
2022-10-03T05:40:41.221Z,12.90
2022-10-03T05:43:24.744Z,12.90
2022-10-03T05:46:02.769Z,13.00
2022-10-03T05:48:43.513Z,13.00
2022-10-03T05:51:44.705Z,13.00
2022-10-03T05:54:56.646Z,13.00
2022-10-03T05:57:57.246Z,13.00
2022-10-03T06:00:32.946Z,13.10
2022-10-03T06:03:37.818Z,13.00
2022-10-03T06:06:20.049Z,13.00
2022-10-03T06:09:45.395Z,13.10
2022-10-03T06:12:20.920Z,13.10
2022-10-03T06:15:08.560Z,13.10
2022-10-03T06:18:00.031Z,13.10
2022-10-03T06:21:04.931Z,13.00
2022-10-03T06:23:51.854Z,13.00
2022-10-03T06:26:37.417Z,13.00
2022-10-03T06:29:41.555Z,13.00
2022-10-03T06:32:25.657Z,13.00
2022-10-03T06:35:29.661Z,13.00
2022-10-03T06:38:31.019Z,13.00
2022-10-03T06:41:55.026Z,13.10
2022-10-03T06:44:42.019Z,13.10
2022-10-03T06:47:51.501Z,13.10
2022-10-03T06:50:48.152Z,13.10
2022-10-03T06:53:44.139Z,13.10
2022-10-03T06:56:50.117Z,13.10
2022-10-03T06:59:46.742Z,13.10
2022-10-03T07:02:47.665Z,13.20
2022-10-03T07:05:58.045Z,13.20
2022-10-03T07:09:05.761Z,13.20
2022-10-03T07:12:14.051Z,13.30
2022-10-03T07:15:07.672Z,13.30
2022-10-03T07:17:52.459Z,13.30
2022-10-03T07:20:56.182Z,13.30
2022-10-03T07:23:57.158Z,13.30
2022-10-03T07:26:54.889Z,13.40
2022-10-03T07:29:35.055Z,13.40
2022-10-03T07:32:35.674Z,13.40
2022-10-03T07:35:26.908Z,13.40
2022-10-03T07:38:36.168Z,13.40
2022-10-03T07:41:33.884Z,13.50
2022-10-03T07:44:30.317Z,13.50
2022-10-03T07:50:05.568Z,13.50
2022-10-03T07:52:54.153Z,13.60
2022-10-03T07:55:31.566Z,13.60
2022-10-03T07:58:26.140Z,13.60
2022-10-03T08:01:30.806Z,13.70
2022-10-03T08:04:30.810Z,13.70
2022-10-03T08:07:12.973Z,13.70
2022-10-03T08:09:54.230Z,13.70
2022-10-03T08:12:53.154Z,13.80
2022-10-03T08:15:31.028Z,13.80
2022-10-03T08:18:37.523Z,13.80
2022-10-03T08:21:09.901Z,13.90
2022-10-03T08:24:25.073Z,14.00
2022-10-03T08:27:13.123Z,14.00
2022-10-03T08:30:05.262Z,14.00
2022-10-03T08:33:01.249Z,14.10
2022-10-03T08:35:45.253Z,14.10
2022-10-03T08:38:49.547Z,14.20
2022-10-03T08:41:48.856Z,14.30
2022-10-03T08:44:56.454Z,14.30
2022-10-03T08:47:48.167Z,14.30
2022-10-03T08:50:42.749Z,14.30
2022-10-03T08:53:56.872Z,14.30
2022-10-03T08:56:36.978Z,14.40
2022-10-03T08:59:23.574Z,14.40
2022-10-03T09:02:21.222Z,14.50
2022-10-03T09:05:15.829Z,14.60
2022-10-03T09:08:15.823Z,14.60
2022-10-03T09:11:18.872Z,14.70
2022-10-03T09:14:27.244Z,14.80
2022-10-03T09:17:06.246Z,14.90
2022-10-03T09:19:58.192Z,15.00
2022-10-03T09:23:01.659Z,15.00
2022-10-03T09:25:46.682Z,15.10
2022-10-03T09:28:41.838Z,15.10
2022-10-03T09:31:33.112Z,15.20
2022-10-03T09:34:24.001Z,15.20
2022-10-03T09:37:31.995Z,15.30
2022-10-03T09:40:37.967Z,15.40
2022-10-03T09:43:31.321Z,15.40
2022-10-03T09:46:26.360Z,15.50
2022-10-03T09:49:27.013Z,15.50
2022-10-03T09:52:10.264Z,15.50
2022-10-03T09:55:06.639Z,15.50
2022-10-03T09:58:02.257Z,15.70
2022-10-03T10:00:48.273Z,15.70
2022-10-03T10:03:48.364Z,15.80
2022-10-03T10:06:55.564Z,15.80
2022-10-03T10:09:53.885Z,15.90
2022-10-03T10:12:54.374Z,15.80
2022-10-03T10:15:38.615Z,15.80
2022-10-03T10:18:33.459Z,15.80
2022-10-03T10:21:50.692Z,15.90
2022-10-03T10:25:00.369Z,16.00
2022-10-03T10:28:18.865Z,16.00
2022-10-03T10:31:18.360Z,16.10
2022-10-03T10:34:22.311Z,16.20
2022-10-03T10:37:22.331Z,16.30
2022-10-03T10:40:37.351Z,16.40
2022-10-03T10:43:37.009Z,16.50
2022-10-03T10:46:51.174Z,16.60
2022-10-03T10:49:57.370Z,16.60
2022-10-03T10:52:58.778Z,16.70
2022-10-03T10:56:14.720Z,16.70
2022-10-03T10:59:16.328Z,16.70
2022-10-03T11:02:13.945Z,16.80
2022-10-03T11:05:18.896Z,17.00
2022-10-03T11:08:29.207Z,16.90
2022-10-03T11:11:32.968Z,16.90
2022-10-03T11:14:38.150Z,16.90
2022-10-03T11:17:30.769Z,16.90
2022-10-03T11:20:41.154Z,16.90
2022-10-03T11:23:56.786Z,17.00
2022-10-03T11:27:01.117Z,17.00
2022-10-03T11:30:03.487Z,17.20
2022-10-03T11:33:16.752Z,17.20
2022-10-03T11:36:33.687Z,17.30
2022-10-03T11:39:05.870Z,17.40
2022-10-03T11:41:48.340Z,17.60
2022-10-03T11:44:23.414Z,17.60
2022-10-03T11:47:18.435Z,17.70
2022-10-03T11:50:15.461Z,17.70
2022-10-03T11:52:59.704Z,17.80
2022-10-03T11:55:33.873Z,17.80
2022-10-03T11:58:21.096Z,17.90
2022-10-03T12:00:57.022Z,17.90
2022-10-03T12:03:30.299Z,18.00
2022-10-03T12:06:14.513Z,18.00
2022-10-03T12:08:58.239Z,18.10
2022-10-03T12:11:29.099Z,18.10
2022-10-03T12:14:15.665Z,18.10
2022-10-03T12:16:58.388Z,18.20
2022-10-03T12:19:31.647Z,18.20
2022-10-03T12:22:06.364Z,18.20
2022-10-03T12:24:37.774Z,18.20
2022-10-03T12:27:17.200Z,18.20
2022-10-03T12:29:52.965Z,18.30
2022-10-03T12:32:29.704Z,18.30
2022-10-03T12:35:07.656Z,18.30
2022-10-03T12:37:58.579Z,18.30
2022-10-03T12:40:32.602Z,18.30
2022-10-03T12:43:19.051Z,18.40
2022-10-03T12:45:53.241Z,18.40
2022-10-03T12:48:35.215Z,18.30
2022-10-03T12:51:14.962Z,18.30
2022-10-03T12:53:52.842Z,18.30
2022-10-03T12:56:31.203Z,18.30
2022-10-03T12:59:11.785Z,18.20
2022-10-03T13:01:54.409Z,18.10
2022-10-03T13:04:35.097Z,18.10
2022-10-03T13:07:24.903Z,18.00
2022-10-03T13:10:03.505Z,17.80
2022-10-03T13:12:40.963Z,17.80
2022-10-03T13:15:41.659Z,17.80
2022-10-03T13:18:20.432Z,17.80
2022-10-03T13:20:59.881Z,17.70
2022-10-03T13:23:41.039Z,17.70
2022-10-03T13:26:18.170Z,17.70
2022-10-03T13:29:17.348Z,17.60
2022-10-03T13:32:01.360Z,17.50
2022-10-03T13:34:32.402Z,17.40
2022-10-03T13:37:06.528Z,17.30
2022-10-03T13:39:46.987Z,17.20
2022-10-03T13:42:20.074Z,17.20
2022-10-03T13:44:54.444Z,17.10
2022-10-03T13:47:31.704Z,17.10
2022-10-03T13:50:03.029Z,17.10
2022-10-03T13:52:39.626Z,17.10
2022-10-03T13:55:20.125Z,17.10
2022-10-03T13:58:00.946Z,17.10
2022-10-03T14:00:36.075Z,17.00
2022-10-03T14:03:23.879Z,16.90
2022-10-03T14:06:01.185Z,16.90
2022-10-03T14:08:56.549Z,16.90
2022-10-03T14:11:33.830Z,16.90
2022-10-03T14:14:25.308Z,16.80
2022-10-03T14:17:01.693Z,16.80
2022-10-03T14:19:40.304Z,16.80
2022-10-03T14:22:22.648Z,16.80
2022-10-03T14:25:00.516Z,16.80
2022-10-03T14:27:45.345Z,16.80
2022-10-03T14:30:16.746Z,16.80
2022-10-03T14:32:54.051Z,16.80
2022-10-03T14:35:38.223Z,16.70
2022-10-03T14:38:20.887Z,16.80
2022-10-03T14:40:51.000Z,16.70
2022-10-03T14:43:28.872Z,16.70
2022-10-03T14:45:59.115Z,16.70
2022-10-03T14:48:31.302Z,16.70
2022-10-03T14:51:07.769Z,16.70
2022-10-03T14:53:39.648Z,16.70
2022-10-03T14:56:11.628Z,16.70
2022-10-03T14:58:46.931Z,16.60
2022-10-03T15:01:19.310Z,16.60
2022-10-03T15:04:01.350Z,16.50
2022-10-03T15:06:35.616Z,16.40
2022-10-03T15:09:09.668Z,16.30
2022-10-03T15:11:46.093Z,16.20
2022-10-03T15:14:15.140Z,16.20
2022-10-03T15:16:47.594Z,16.10
2022-10-03T15:19:20.815Z,16.00
2022-10-03T15:21:52.796Z,15.90
2022-10-03T15:24:25.638Z,15.90
2022-10-03T15:26:59.386Z,15.90
2022-10-03T15:29:27.970Z,15.90
2022-10-03T15:31:57.570Z,15.90
2022-10-03T15:34:33.086Z,15.80
2022-10-03T15:37:07.088Z,15.80
2022-10-03T15:39:37.756Z,15.80
2022-10-03T15:42:22.825Z,15.80
2022-10-03T15:44:53.662Z,15.90
2022-10-03T15:47:23.745Z,15.90
2022-10-03T15:49:57.034Z,15.90
2022-10-03T15:52:32.678Z,15.80
2022-10-03T15:55:11.937Z,15.80
2022-10-03T15:57:45.096Z,15.70
2022-10-03T16:00:22.838Z,15.70
2022-10-03T16:02:56.817Z,15.60
2022-10-03T16:05:30.450Z,15.60
2022-10-03T16:08:03.978Z,15.60
2022-10-03T16:10:37.732Z,15.50
2022-10-03T16:13:18.205Z,15.50
2022-10-03T16:16:09.118Z,15.50
2022-10-03T16:18:50.862Z,15.50
2022-10-03T16:21:41.824Z,15.50
2022-10-03T16:24:20.901Z,15.50
2022-10-03T16:26:53.235Z,15.50
2022-10-03T16:29:25.191Z,15.40
2022-10-03T16:31:58.095Z,15.50
2022-10-03T16:34:30.898Z,15.40
2022-10-03T16:37:00.934Z,15.40
2022-10-03T16:39:34.731Z,15.40
2022-10-03T16:42:12.581Z,15.40
2022-10-03T16:44:49.640Z,15.30
2022-10-03T16:47:20.202Z,15.20
2022-10-03T16:50:10.720Z,15.20
2022-10-03T16:52:41.786Z,15.20
2022-10-03T16:55:18.256Z,15.10
2022-10-03T16:57:50.734Z,15.20
2022-10-03T17:00:22.459Z,15.10
2022-10-03T17:02:51.178Z,15.10
2022-10-03T17:05:20.237Z,15.10
2022-10-03T17:07:52.691Z,15.00
2022-10-03T17:10:34.152Z,15.00
2022-10-03T17:13:06.735Z,14.90
2022-10-03T17:15:40.101Z,14.90
2022-10-03T17:18:23.288Z,14.90
2022-10-03T17:20:56.748Z,14.90
2022-10-03T17:23:33.383Z,14.90
2022-10-03T17:26:06.501Z,14.80
2022-10-03T17:28:41.355Z,14.80
2022-10-03T17:31:26.385Z,14.80
2022-10-03T17:34:01.354Z,14.80
2022-10-03T17:36:49.098Z,14.80
2022-10-03T17:39:32.884Z,14.80
2022-10-03T17:42:05.831Z,14.80
2022-10-03T17:44:44.072Z,14.80
2022-10-03T17:47:20.820Z,14.80
2022-10-03T17:49:57.278Z,14.80
2022-10-03T17:52:26.138Z,14.80
2022-10-03T17:54:58.813Z,14.70
2022-10-03T17:57:29.440Z,14.70
2022-10-03T18:00:02.469Z,14.70
2022-10-03T18:02:38.166Z,14.70
2022-10-03T18:05:14.621Z,14.70
2022-10-03T18:07:44.112Z,14.70
2022-10-03T18:10:25.194Z,14.70
2022-10-03T18:12:56.189Z,14.70
2022-10-03T18:15:41.033Z,14.60
2022-10-03T18:18:43.646Z,14.60
2022-10-03T18:21:18.243Z,14.60
2022-10-03T18:24:11.874Z,14.60
2022-10-03T18:31:50.373Z,14.60
2022-10-03T18:34:20.915Z,14.60
2022-10-03T18:36:51.045Z,14.40
2022-10-03T18:39:21.660Z,14.40
2022-10-03T18:41:53.923Z,14.40
2022-10-03T18:44:24.503Z,14.40
2022-10-03T18:47:13.301Z,14.30
2022-10-03T18:49:45.227Z,14.30
2022-10-03T18:52:20.388Z,14.30
2022-10-03T18:54:57.510Z,14.30
2022-10-03T18:57:37.230Z,14.20
2022-10-03T19:00:08.969Z,14.10
2022-10-03T19:02:40.162Z,14.10
2022-10-03T19:05:14.978Z,14.10
2022-10-03T19:07:49.821Z,14.10
2022-10-03T19:10:39.326Z,14.00
2022-10-03T19:13:19.381Z,14.00
2022-10-03T19:16:14.538Z,14.00
2022-10-03T19:18:45.125Z,13.90
2022-10-03T19:21:20.045Z,14.00
2022-10-03T19:23:52.362Z,13.90
2022-10-03T19:26:24.462Z,13.90
2022-10-03T19:28:57.634Z,13.90
2022-10-03T19:31:29.947Z,13.90
2022-10-03T19:34:00.903Z,13.80
2022-10-03T19:36:31.425Z,13.80
2022-10-03T19:39:00.294Z,13.80
2022-10-03T19:41:32.661Z,13.80
2022-10-03T19:44:07.430Z,13.80
2022-10-03T19:46:59.871Z,13.80
2022-10-03T19:49:33.571Z,13.80
2022-10-03T19:52:16.082Z,13.70
2022-10-03T19:54:54.137Z,13.80
2022-10-03T19:57:27.576Z,13.80
2022-10-03T20:00:01.880Z,13.70
2022-10-03T20:02:40.315Z,13.70
2022-10-03T20:05:09.100Z,13.70
2022-10-03T20:07:46.125Z,13.70
2022-10-03T20:10:40.945Z,13.70
2022-10-03T20:13:10.325Z,13.60
2022-10-03T20:15:44.840Z,13.70
2022-10-03T20:18:22.404Z,13.70
2022-10-03T20:20:52.984Z,13.60
2022-10-03T20:23:24.319Z,13.70
2022-10-03T20:25:58.558Z,13.60
2022-10-03T20:28:47.970Z,13.50
2022-10-03T20:31:23.604Z,13.60
2022-10-03T20:33:54.361Z,13.60
2022-10-03T20:36:25.438Z,13.50
2022-10-03T20:39:12.855Z,13.60
2022-10-03T20:41:53.278Z,13.50
2022-10-03T20:44:30.423Z,13.60
2022-10-03T20:47:06.478Z,13.40
2022-10-03T20:49:38.285Z,13.50
2022-10-03T20:52:08.005Z,13.50
2022-10-03T20:54:37.932Z,13.50
2022-10-03T20:57:13.858Z,13.50
2022-10-03T20:59:46.998Z,13.40
2022-10-03T21:02:26.848Z,13.50
2022-10-03T21:05:01.252Z,13.50
2022-10-03T21:07:41.196Z,13.50
2022-10-03T21:10:21.562Z,13.50
2022-10-03T21:12:52.441Z,13.50
2022-10-03T21:15:29.980Z,13.40
2022-10-03T21:17:59.656Z,13.50
2022-10-03T21:20:32.320Z,13.50
2022-10-03T21:25:34.051Z,13.50
2022-10-03T21:28:04.076Z,13.50
2022-10-03T21:31:01.606Z,13.50
2022-10-03T21:33:36.070Z,13.50
2022-10-03T21:36:09.814Z,13.50
2022-10-03T21:38:42.985Z,13.50
2022-10-03T21:41:27.881Z,13.50
2022-10-03T21:43:58.025Z,13.50
2022-10-03T21:46:45.791Z,13.50
2022-10-03T21:49:37.759Z,13.50
2022-10-03T21:52:24.496Z,13.50
2022-10-03T21:55:05.318Z,13.50
2022-10-03T21:57:46.585Z,13.50
2022-10-03T22:00:16.422Z,13.50
2022-10-03T22:02:55.909Z,13.50
2022-10-03T22:05:36.468Z,13.50
2022-10-03T22:08:15.051Z,13.50
2022-10-03T22:10:53.704Z,13.40
2022-10-03T22:13:26.385Z,13.40
2022-10-03T22:15:59.376Z,13.40
2022-10-03T22:18:32.169Z,13.40
2022-10-03T22:21:10.094Z,13.40
2022-10-03T22:23:44.542Z,13.40
2022-10-03T22:26:21.793Z,13.40
2022-10-03T22:28:57.720Z,13.40
2022-10-03T22:31:31.989Z,13.40
2022-10-03T22:34:20.177Z,13.30
2022-10-03T22:36:49.874Z,13.30
2022-10-03T22:39:20.842Z,13.40
2022-10-03T22:41:54.043Z,13.40
2022-10-03T22:44:26.238Z,13.40
2022-10-03T22:46:58.195Z,13.40
2022-10-03T22:49:31.655Z,13.40
2022-10-03T22:52:03.948Z,13.40
2022-10-03T22:54:34.716Z,13.40
2022-10-03T22:57:06.916Z,13.40
2022-10-03T22:59:39.356Z,13.40
2022-10-03T23:02:09.628Z,13.40
2022-10-03T23:04:40.936Z,13.40
2022-10-03T23:07:35.654Z,13.40
2022-10-03T23:10:14.829Z,13.40
2022-10-03T23:12:48.838Z,13.30
2022-10-03T23:15:19.792Z,13.30
2022-10-03T23:18:04.344Z,13.30
2022-10-03T23:20:50.891Z,13.30
2022-10-03T23:23:25.878Z,13.30
2022-10-03T23:26:04.642Z,13.30
2022-10-03T23:28:43.387Z,13.30
2022-10-03T23:31:49.987Z,13.20
2022-10-03T23:34:49.064Z,13.20
2022-10-03T23:37:39.009Z,13.20
2022-10-03T23:40:38.502Z,13.30
2022-10-03T23:43:26.085Z,13.20
2022-10-03T23:45:56.941Z,13.20
2022-10-03T23:48:26.107Z,13.30
2022-10-03T23:50:58.103Z,13.30
2022-10-03T23:53:32.161Z,13.20
2022-10-03T23:56:04.563Z,13.20
2022-10-03T23:58:34.421Z,13.30
